createdAt,value
2022-08-18T00:01:56.255Z,39.80
2022-08-18T00:04:29.897Z,39.55
2022-08-18T00:07:04.211Z,38.65
2022-08-18T00:09:34.000Z,41.22
2022-08-18T00:12:04.074Z,41.58
2022-08-18T00:14:32.634Z,43.10
2022-08-18T00:17:01.130Z,43.08
2022-08-18T00:19:45.457Z,41.42
2022-08-18T00:22:18.358Z,42.42
2022-08-18T00:24:49.238Z,41.78
2022-08-18T00:27:21.747Z,41.45
2022-08-18T00:29:52.165Z,42.45
2022-08-18T00:32:24.002Z,40.30
2022-08-18T00:34:54.126Z,38.60
2022-08-18T00:37:23.989Z,40.10
2022-08-18T00:39:52.827Z,41.28
2022-08-18T00:42:27.292Z,39.70
2022-08-18T00:45:02.965Z,41.05
2022-08-18T00:47:41.502Z,40.95
2022-08-18T00:50:24.879Z,40.38
2022-08-18T00:52:57.325Z,42.53
2022-08-18T00:55:26.651Z,41.58
2022-08-18T00:58:01.782Z,42.30
2022-08-18T01:00:30.170Z,42.72
2022-08-18T01:03:02.216Z,46.55
2022-08-18T01:05:40.984Z,46.00
2022-08-18T01:08:11.827Z,44.78
2022-08-18T01:10:40.579Z,46.67
2022-08-18T01:13:09.372Z,45.03
2022-08-18T01:15:38.171Z,45.28
2022-08-18T01:18:28.938Z,46.53
2022-08-18T01:21:23.218Z,44.53
2022-08-18T01:23:55.633Z,44.25
2022-08-18T01:26:26.274Z,44.33
2022-08-18T01:28:54.340Z,42.33
2022-08-18T01:31:38.131Z,41.03
2022-08-18T01:34:07.617Z,38.88
2022-08-18T01:36:38.325Z,42.40
2022-08-18T01:39:10.179Z,41.30
2022-08-18T01:41:38.545Z,41.78
2022-08-18T01:44:11.641Z,39.50
2022-08-18T01:46:41.740Z,38.72
2022-08-18T01:49:10.852Z,38.00
2022-08-18T01:51:41.421Z,39.25
2022-08-18T01:54:14.765Z,38.13
2022-08-18T01:56:43.580Z,38.17
2022-08-18T01:59:13.578Z,42.00
2022-08-18T02:01:48.860Z,42.42
2022-08-18T02:04:41.356Z,37.05
2022-08-18T02:07:12.007Z,40.15
2022-08-18T02:09:44.093Z,40.22
2022-08-18T02:12:13.471Z,40.60
2022-08-18T02:14:41.890Z,40.80
2022-08-18T02:17:11.994Z,40.70
2022-08-18T02:19:42.860Z,40.40
2022-08-18T02:22:13.424Z,47.70
2022-08-18T02:24:43.313Z,46.08
2022-08-18T02:27:13.182Z,50.70
2022-08-18T02:29:41.787Z,49.53
2022-08-18T02:32:09.773Z,52.45
2022-08-18T02:34:37.834Z,46.78
2022-08-18T02:37:05.610Z,42.40
2022-08-18T02:39:37.910Z,32.00
2022-08-18T02:42:07.846Z,30.00
2022-08-18T02:44:36.638Z,37.15
2022-08-18T02:47:05.048Z,43.13
2022-08-18T02:49:33.465Z,38.28
2022-08-18T02:52:01.294Z,39.33
2022-08-18T02:54:29.207Z,42.75
2022-08-18T02:56:58.066Z,45.85
2022-08-18T02:59:28.467Z,47.60
2022-08-18T03:02:00.119Z,50.45
2022-08-18T03:04:30.688Z,51.00
2022-08-18T03:07:01.270Z,47.47
2022-08-18T03:09:30.443Z,48.55
2022-08-18T03:11:59.763Z,45.65
2022-08-18T03:14:29.427Z,49.30
2022-08-18T03:16:58.345Z,46.50
2022-08-18T03:19:28.477Z,43.42
2022-08-18T03:21:59.381Z,39.60
2022-08-18T03:24:31.653Z,35.67
2022-08-18T03:27:01.539Z,41.15
2022-08-18T03:29:32.677Z,41.90
2022-08-18T03:32:02.006Z,43.10
2022-08-18T03:34:30.549Z,41.03
2022-08-18T03:36:59.285Z,44.28
2022-08-18T03:39:28.547Z,45.78
2022-08-18T03:42:01.534Z,45.78
2022-08-18T03:44:34.173Z,44.75
2022-08-18T03:49:33.536Z,41.97
2022-08-18T03:52:01.907Z,40.17
2022-08-18T03:54:32.076Z,41.92
2022-08-18T03:57:01.205Z,41.80
2022-08-18T03:59:32.018Z,42.53
2022-08-18T04:02:00.879Z,43.63
2022-08-18T04:04:30.146Z,41.55
2022-08-18T04:07:00.430Z,44.58
2022-08-18T04:09:30.210Z,45.72
2022-08-18T04:11:59.438Z,48.58
2022-08-18T04:14:30.363Z,46.22
2022-08-18T04:17:00.339Z,45.08
2022-08-18T04:19:28.559Z,41.72
2022-08-18T04:21:58.167Z,42.17
2022-08-18T04:24:31.063Z,40.67
2022-08-18T04:27:01.699Z,39.25
2022-08-18T04:29:30.220Z,38.70
2022-08-18T04:32:01.534Z,38.13
2022-08-18T04:34:29.667Z,41.88
2022-08-18T04:36:57.709Z,41.15
2022-08-18T04:39:25.747Z,44.42
2022-08-18T04:41:53.969Z,42.60
2022-08-18T04:44:22.237Z,44.17
2022-08-18T04:46:52.761Z,43.47
2022-08-18T04:49:26.092Z,43.53
2022-08-18T04:52:36.334Z,40.67
2022-08-18T04:55:03.982Z,34.65
2022-08-18T04:57:34.883Z,34.60
2022-08-18T05:00:03.971Z,35.75
2022-08-18T05:02:33.033Z,34.28
2022-08-18T05:05:03.929Z,39.67
2022-08-18T05:07:32.071Z,40.20
2022-08-18T05:10:00.022Z,37.78
2022-08-18T05:12:28.330Z,39.90
2022-08-18T05:14:57.737Z,40.53
2022-08-18T05:17:30.096Z,36.33
2022-08-18T05:19:58.759Z,37.35
2022-08-18T05:22:30.424Z,36.53
2022-08-18T05:24:59.898Z,37.42
2022-08-18T05:27:33.886Z,38.47
2022-08-18T05:30:02.391Z,34.53
2022-08-18T05:32:47.662Z,33.05
2022-08-18T05:35:23.095Z,34.33
2022-08-18T05:38:35.117Z,32.78
2022-08-18T05:41:13.673Z,31.40
2022-08-18T05:43:51.224Z,29.95
2022-08-18T05:46:22.800Z,32.00
2022-08-18T05:48:51.455Z,29.20
2022-08-18T05:51:30.442Z,31.58
2022-08-18T05:54:19.036Z,29.90
2022-08-18T05:56:51.071Z,30.15
2022-08-18T05:59:24.659Z,28.98
2022-08-18T06:01:59.961Z,30.08
2022-08-18T06:04:38.914Z,28.58
2022-08-18T06:07:12.398Z,27.25
2022-08-18T06:09:48.517Z,27.10
2022-08-18T06:12:25.422Z,26.45
2022-08-18T06:15:01.657Z,24.92
2022-08-18T06:17:57.952Z,25.63
2022-08-18T06:20:33.547Z,25.27
2022-08-18T06:23:18.516Z,24.30
2022-08-18T06:25:58.797Z,24.15
2022-08-18T06:28:30.414Z,24.73
2022-08-18T06:33:50.571Z,25.15
2022-08-18T06:36:33.329Z,25.48
2022-08-18T06:39:07.190Z,25.05
2022-08-18T06:41:42.980Z,26.00
2022-08-18T06:44:13.400Z,25.23
2022-08-18T06:46:46.151Z,25.45
2022-08-18T06:49:25.427Z,24.88
2022-08-18T06:51:53.749Z,25.23
2022-08-18T06:54:30.650Z,25.38
2022-08-18T06:57:00.101Z,24.27
2022-08-18T06:59:30.866Z,24.23
2022-08-18T07:02:02.092Z,20.73
2022-08-18T07:04:38.471Z,21.45
2022-08-18T07:07:15.338Z,21.23
2022-08-18T07:09:43.396Z,21.02
2022-08-18T07:12:20.434Z,21.08
2022-08-18T07:14:52.094Z,20.30
2022-08-18T07:20:20.607Z,20.50
2022-08-18T07:23:00.258Z,19.45
2022-08-18T07:25:32.448Z,19.25
2022-08-18T07:28:02.905Z,20.58
2022-08-18T07:30:35.956Z,19.05
2022-08-18T07:33:14.960Z,18.88
2022-08-18T07:35:49.135Z,19.35
2022-08-18T07:41:16.421Z,18.30
2022-08-18T07:43:59.533Z,17.73
2022-08-18T07:46:39.930Z,17.92
2022-08-18T07:49:07.994Z,17.45
2022-08-18T07:51:47.600Z,17.90
2022-08-18T07:54:50.792Z,17.38
2022-08-18T07:57:29.686Z,16.23
2022-08-18T08:00:11.220Z,16.10
2022-08-18T08:02:58.841Z,15.60
2022-08-18T08:05:41.415Z,16.38
2022-08-18T08:08:24.919Z,15.27
2022-08-18T08:11:08.806Z,12.85
2022-08-18T08:13:55.641Z,14.30
2022-08-18T08:16:36.562Z,11.85
2022-08-18T08:19:49.438Z,12.27
2022-08-18T08:22:22.035Z,11.85
2022-08-18T08:24:58.038Z,12.25
2022-08-18T08:27:37.794Z,12.13
2022-08-18T08:30:10.862Z,12.07
2022-08-18T08:32:50.775Z,11.52
2022-08-18T08:35:48.754Z,11.32
2022-08-18T08:38:39.954Z,11.80
2022-08-18T08:41:14.415Z,11.63
2022-08-18T08:43:46.649Z,11.20
2022-08-18T08:46:20.859Z,11.35
2022-08-18T08:48:55.929Z,11.48
2022-08-18T08:51:38.193Z,11.07
2022-08-18T08:54:12.043Z,11.85
2022-08-18T08:56:47.686Z,10.77
2022-08-18T08:59:18.581Z,12.10
2022-08-18T09:01:53.571Z,11.50
2022-08-18T09:04:34.041Z,11.27
2022-08-18T09:07:18.794Z,11.27
2022-08-18T09:10:06.036Z,11.13
2022-08-18T09:12:48.222Z,10.38
2022-08-18T09:15:44.650Z,11.70
2022-08-18T09:18:36.352Z,10.43
2022-08-18T09:23:47.405Z,10.60
2022-08-18T09:26:39.500Z,11.77
2022-08-18T09:29:17.712Z,10.95
2022-08-18T09:31:48.606Z,11.00
2022-08-18T09:34:32.622Z,10.18
2022-08-18T09:37:17.759Z,11.07
2022-08-18T09:40:14.668Z,10.18
2022-08-18T09:42:50.385Z,11.25
2022-08-18T09:45:42.393Z,10.38
2022-08-18T09:48:29.282Z,9.77
2022-08-18T09:51:18.768Z,10.13
2022-08-18T09:54:09.068Z,10.25
2022-08-18T09:57:19.453Z,10.27
2022-08-18T09:59:58.042Z,10.85
2022-08-18T10:03:12.314Z,9.95
2022-08-18T10:05:42.130Z,11.25
2022-08-18T10:08:38.031Z,10.48
2022-08-18T10:11:29.513Z,9.47
2022-08-18T10:14:12.184Z,10.63
2022-08-18T10:17:15.818Z,10.18
2022-08-18T10:19:49.059Z,10.07
2022-08-18T10:22:38.842Z,10.32
2022-08-18T10:25:22.569Z,10.80
2022-08-18T10:27:56.699Z,10.25
2022-08-18T10:34:08.379Z,9.93
2022-08-18T10:36:52.423Z,10.43
2022-08-18T10:39:23.293Z,9.93
2022-08-18T10:42:01.396Z,10.13
2022-08-18T10:44:33.258Z,9.45
2022-08-18T10:47:03.984Z,9.82
2022-08-18T10:49:44.562Z,9.93
2022-08-18T10:55:51.233Z,9.25
2022-08-18T10:58:32.320Z,9.95
2022-08-18T11:01:22.637Z,9.57
2022-08-18T11:04:14.325Z,9.05
2022-08-18T11:07:02.531Z,9.95
2022-08-18T11:09:36.951Z,9.95
2022-08-18T11:12:11.965Z,9.50
2022-08-18T11:14:55.710Z,10.15
2022-08-18T11:20:31.956Z,9.23
2022-08-18T11:23:02.879Z,9.38
2022-08-18T11:28:02.302Z,9.70
2022-08-18T11:30:35.228Z,9.30
2022-08-18T11:33:06.793Z,9.40
2022-08-18T11:35:47.008Z,9.07
2022-08-18T11:38:20.900Z,9.15
2022-08-18T11:41:11.569Z,10.00
2022-08-18T11:46:33.395Z,9.57
2022-08-18T11:49:24.288Z,9.05
2022-08-18T11:51:57.871Z,9.30
2022-08-18T11:54:50.488Z,9.68
2022-08-18T11:57:46.879Z,8.82
2022-08-18T12:00:42.569Z,8.68
2022-08-18T12:03:19.136Z,9.38
2022-08-18T12:08:58.261Z,9.23
2022-08-18T12:11:30.305Z,9.13
2022-08-18T12:14:30.142Z,9.00
2022-08-18T12:16:54.116Z,9.45
2022-08-18T12:22:17.684Z,9.38
2022-08-18T12:24:48.309Z,8.82
2022-08-18T12:27:25.081Z,8.70
2022-08-18T12:30:01.779Z,9.18
2022-08-18T12:32:50.181Z,9.00
2022-08-18T12:35:21.799Z,9.13
2022-08-18T12:37:59.623Z,8.82
2022-08-18T12:40:28.642Z,9.00
2022-08-18T12:42:56.894Z,8.00
2022-08-18T12:45:27.207Z,9.05
2022-08-18T12:47:55.422Z,9.02
2022-08-18T12:50:31.160Z,8.50
2022-08-18T12:53:04.497Z,9.30
2022-08-18T12:58:24.864Z,8.73
2022-08-18T13:00:53.075Z,8.75
2022-08-18T13:03:21.335Z,8.18
2022-08-18T13:05:49.164Z,8.23
2022-08-18T13:08:30.656Z,8.80
2022-08-18T13:11:14.521Z,8.32
2022-08-18T13:13:43.966Z,8.88
2022-08-18T13:16:16.463Z,8.85
2022-08-18T13:19:02.005Z,8.50
2022-08-18T13:21:40.977Z,8.88
2022-08-18T13:24:12.792Z,8.05
2022-08-18T13:26:45.819Z,8.50
2022-08-18T13:29:15.468Z,8.27
2022-08-18T13:31:55.819Z,8.00
2022-08-18T13:34:30.109Z,7.57
2022-08-18T13:36:58.329Z,7.88
2022-08-18T13:39:34.268Z,8.93
2022-08-18T13:42:26.589Z,8.20
2022-08-18T13:44:53.361Z,8.32
2022-08-18T13:47:21.695Z,7.95
2022-08-18T13:49:58.367Z,7.35
2022-08-18T13:52:34.857Z,7.40
2022-08-18T13:55:08.431Z,8.23
2022-08-18T13:57:41.899Z,8.30
2022-08-18T14:00:18.386Z,8.13
2022-08-18T14:02:52.365Z,7.57
2022-08-18T14:05:21.042Z,8.23
2022-08-18T14:08:06.226Z,7.47
2022-08-18T14:10:35.467Z,8.13
2022-08-18T14:13:19.912Z,7.82
2022-08-18T14:15:53.509Z,7.82
2022-08-18T14:18:21.907Z,8.70
2022-08-18T14:21:14.723Z,7.63
2022-08-18T14:24:14.215Z,7.68
2022-08-18T14:26:50.004Z,7.80
2022-08-18T14:29:46.077Z,7.05
2022-08-18T14:32:08.382Z,7.47
2022-08-18T14:34:36.814Z,8.07
2022-08-18T14:37:05.003Z,8.38
2022-08-18T14:39:38.575Z,9.85
2022-08-18T14:42:09.639Z,7.05
2022-08-18T14:44:40.350Z,8.32
2022-08-18T14:47:09.416Z,7.57
2022-08-18T14:49:42.977Z,7.78
2022-08-18T14:52:16.080Z,8.07
2022-08-18T14:54:46.275Z,6.85
2022-08-18T14:59:49.256Z,7.57
2022-08-18T15:02:17.612Z,7.97
2022-08-18T15:04:56.001Z,7.25
2022-08-18T15:07:26.168Z,7.78
2022-08-18T15:10:19.701Z,7.30
2022-08-18T15:12:44.572Z,6.95
2022-08-18T15:15:17.998Z,6.53
2022-08-18T15:17:49.554Z,7.10
2022-08-18T15:20:23.977Z,7.63
2022-08-18T15:23:22.823Z,8.25
2022-08-18T15:25:56.977Z,7.88
2022-08-18T15:33:44.089Z,8.27
2022-08-18T15:36:28.909Z,7.35
2022-08-18T15:38:57.967Z,8.10
2022-08-18T15:41:32.714Z,7.28
2022-08-18T15:44:05.771Z,7.50
2022-08-18T15:46:34.952Z,7.97
2022-08-18T15:49:05.343Z,8.05
2022-08-18T15:54:11.398Z,7.05
2022-08-18T15:56:39.667Z,7.30
2022-08-18T15:59:12.958Z,8.27
2022-08-18T16:01:43.443Z,7.25
2022-08-18T16:04:11.314Z,7.13
2022-08-18T16:06:41.685Z,7.20
2022-08-18T16:09:09.521Z,7.20
2022-08-18T16:11:37.423Z,8.10
2022-08-18T16:14:06.454Z,7.50
2022-08-18T16:16:36.648Z,7.78
2022-08-18T16:19:06.742Z,7.97
2022-08-18T16:21:40.065Z,7.63
2022-08-18T16:24:09.320Z,8.45
2022-08-18T16:26:37.629Z,9.15
2022-08-18T16:29:05.415Z,8.13
2022-08-18T16:31:33.778Z,8.57
2022-08-18T16:34:03.199Z,8.25
2022-08-18T16:36:31.004Z,8.40
2022-08-18T16:38:59.120Z,7.72
2022-08-18T16:41:28.196Z,8.60
2022-08-18T16:43:56.331Z,7.90
2022-08-18T16:46:27.109Z,8.13
2022-08-18T16:48:56.075Z,8.60
2022-08-18T16:51:26.741Z,8.88
2022-08-18T16:53:55.128Z,8.52
2022-08-18T16:56:25.165Z,9.52
2022-08-18T16:59:10.527Z,9.35
2022-08-18T17:01:56.844Z,9.57
2022-08-18T17:04:29.032Z,11.20
2022-08-18T17:06:58.567Z,10.07
2022-08-18T17:09:27.393Z,9.20
2022-08-18T17:11:55.532Z,9.00
2022-08-18T17:14:25.921Z,9.43
2022-08-18T17:16:55.382Z,8.70
2022-08-18T17:19:25.348Z,8.55
2022-08-18T17:21:53.744Z,8.48
2022-08-18T17:24:31.993Z,8.88
2022-08-18T17:27:20.387Z,8.70
2022-08-18T17:30:03.101Z,8.20
2022-08-18T17:35:14.734Z,8.82
2022-08-18T17:37:52.197Z,8.77
2022-08-18T17:40:28.557Z,7.80
2022-08-18T17:42:59.768Z,8.82
2022-08-18T17:45:30.747Z,8.20
2022-08-18T17:48:03.725Z,8.30
2022-08-18T17:51:00.521Z,8.73
2022-08-18T17:53:31.761Z,9.02
2022-08-18T17:56:07.654Z,8.27
2022-08-18T17:58:40.676Z,8.77
2022-08-18T18:01:09.530Z,8.32
2022-08-18T18:03:38.011Z,9.25
2022-08-18T18:06:12.001Z,8.07
2022-08-18T18:11:28.628Z,8.05
2022-08-18T18:13:56.690Z,8.93
2022-08-18T18:16:28.175Z,7.72
2022-08-18T18:19:01.354Z,7.25
2022-08-18T18:22:01.526Z,8.02
2022-08-18T18:24:24.154Z,8.02
2022-08-18T18:26:53.607Z,8.20
2022-08-18T18:29:29.108Z,8.52
2022-08-18T18:32:01.615Z,8.23
2022-08-18T18:34:34.217Z,8.40
2022-08-18T18:37:03.394Z,8.38
2022-08-18T18:39:35.628Z,8.20
2022-08-18T18:42:18.399Z,7.55
2022-08-18T18:44:55.662Z,9.15
2022-08-18T18:47:50.391Z,8.95
2022-08-18T18:50:27.341Z,8.45
2022-08-18T18:53:12.118Z,8.77
2022-08-18T18:55:48.540Z,8.10
2022-08-18T18:58:33.271Z,8.55
2022-08-18T19:01:05.594Z,7.57
2022-08-18T19:03:40.695Z,8.15
2022-08-18T19:06:21.085Z,8.85
2022-08-18T19:08:57.961Z,8.05
2022-08-18T19:11:30.685Z,8.77
2022-08-18T19:14:07.341Z,9.45
2022-08-18T19:16:41.655Z,9.02
2022-08-18T19:19:37.649Z,9.50
2022-08-18T19:22:09.880Z,8.32
2022-08-18T19:24:46.440Z,8.82
2022-08-18T19:27:23.679Z,8.23
2022-08-18T19:29:58.061Z,8.77
2022-08-18T19:32:34.827Z,9.10
2022-08-18T19:35:04.461Z,9.13
2022-08-18T19:37:53.813Z,8.35
2022-08-18T19:40:28.249Z,8.95
2022-08-18T19:43:02.816Z,8.90
2022-08-18T19:45:37.330Z,9.18
2022-08-18T19:48:15.161Z,9.43
2022-08-18T19:50:51.923Z,9.40
2022-08-18T19:54:04.261Z,9.20
2022-08-18T19:56:53.312Z,10.63
2022-08-18T19:59:38.700Z,9.63
2022-08-18T20:02:26.465Z,9.18
2022-08-18T20:05:09.277Z,9.93
2022-08-18T20:07:55.615Z,9.95
2022-08-18T20:10:53.677Z,10.35
2022-08-18T20:13:32.594Z,10.25
2022-08-18T20:16:28.565Z,9.77
2022-08-18T20:19:42.032Z,10.68
2022-08-18T20:22:16.131Z,10.48
2022-08-18T20:24:51.753Z,10.07
2022-08-18T20:27:35.914Z,10.27
2022-08-18T20:30:33.138Z,10.57
2022-08-18T20:33:20.600Z,10.02
2022-08-18T20:35:59.430Z,9.30
2022-08-18T20:38:34.260Z,10.82
2022-08-18T20:41:39.181Z,10.55
2022-08-18T20:44:29.416Z,10.27
2022-08-18T20:47:11.161Z,9.98
2022-08-18T20:49:52.745Z,10.25
2022-08-18T20:52:37.837Z,11.10
2022-08-18T20:55:16.393Z,10.65
2022-08-18T20:57:45.201Z,10.60
2022-08-18T21:00:15.763Z,10.93
